Robyn J — WTQ4065 — position and weather

sailwx.info

Track history (hours):
 
Tides and Currents Weather Stations Pressure Air Temp Water Temp Dewpoint Dewpoint Depression Visibility Wind Speed Wind Dir Waves Ship Positions

Robyn J

Owner: JANKOVICH, TOM J, SAN PEDRO, CA. More information available from US FCC via Universal Licensing System and Coast Guard Vessel Documentation Center.

Last reported at 2018-Jan-18 07:59 UTC. Time now 2018-Jan-18 08:10 UTC.
Position N 33°44' W 118°17'.

Length 36 m; draft 3 m.

Type: Tow > 200 m length. MMSI: 367006770.

Date/timePositionNaut miles runAvg speedWind from/ knotsBaromVisibWave heightAir tempDewpointWater temp
2018-Jan-18 07:59N 33°44' W 118°17'0 0.0
2018-Jan-18 06:39N 33°44' W 118°17'0 0.0
2018-Jan-18 06:28N 33°44' W 118°17'0 0.0
2018-Jan-18 05:57N 33°44' W 118°17'0 0.1
2018-Jan-18 05:29N 33°44' W 118°17'3 3.2
2018-Jan-18 04:37N 33°44' W 118°13'  
2018-Jan-12 07:27N 33°44' W 118°17'0 0.0
2018-Jan-12 07:00N 33°44' W 118°17'0 0.0
2018-Jan-12 06:25N 33°44' W 118°17'0 0.0
2018-Jan-12 06:00N 33°44' W 118°17'0 0.1
2018-Jan-12 05:22N 33°44' W 118°16'16 5.7
2018-Jan-12 02:34N 33°32' W 118°04'1 6.7
2018-Jan-12 02:25N 33°31' W 118°03'3 6.6
2018-Jan-12 01:59N 33°28' W 118°01'15 6.6
2018-Jan-11 23:39N 33°16' W 117°50'2 6.4
2018-Jan-11 23:22N 33°15' W 117°49'2 6.2
2018-Jan-11 23:00N 33°13' W 117°47'3 6.5
2018-Jan-11 22:30N 33°10' W 117°45'3 6.4
2018-Jan-11 22:01N 33°08' W 117°43'3 6.5
2018-Jan-11 21:30N 33°05' W 117°41'3 6.5
2018-Jan-11 21:01N 33°02' W 117°38'3 6.4
2018-Jan-11 20:30N 32°60' W 117°36'3 6.4
2018-Jan-11 20:01N 32°57' W 117°34'3 6.4
2018-Jan-11 19:31N 32°55' W 117°31'3 6.3
2018-Jan-11 19:00N 32°52' W 117°29'3 6.2
2018-Jan-11 18:30N 32°50' W 117°27'3 6.2
2018-Jan-11 18:01N 32°47' W 117°25'3 6.1
2018-Jan-11 17:30N 32°45' W 117°23'6 6.1
2018-Jan-11 16:34N 32°40' W 117°18'0 6.1
2018-Jan-11 16:29N 32°40' W 117°18'  
2018-Jan-08 23:51N 32°42' W 117°20'2 5.5
2018-Jan-08 23:30N 32°44' W 117°21'3 5.4
2018-Jan-08 23:01N 32°46' W 117°23'3 5.4
2018-Jan-08 22:30N 32°48' W 117°25'3 5.3
2018-Jan-08 22:00N 32°50' W 117°27'3 5.4
2018-Jan-08 21:30N 32°52' W 117°29'3 5.5
2018-Jan-08 21:00N 32°54' W 117°31'3 5.3
2018-Jan-08 20:30N 32°56' W 117°33'3 5.1
2018-Jan-08 20:00N 32°58' W 117°35'3 5.1
2018-Jan-08 19:30N 33°00' W 117°37'3 5.1
2018-Jan-08 19:00N 33°02' W 117°39'3 5.2
2018-Jan-08 18:30N 33°05' W 117°40'3 5.2
2018-Jan-08 18:00N 33°07' W 117°42'3 5.2
2018-Jan-08 17:30N 33°09' W 117°44'3 5.0
2018-Jan-08 17:00N 33°11' W 117°46'3 5.0
2018-Jan-08 16:30N 33°13' W 117°47'  
Track history (hours):
 
Tides and Currents Weather Stations Pressure Air Temp Water Temp Dewpoint Dewpoint Depression Visibility Wind Speed Wind Dir Waves Ship Positions

Robyn J

Owner: JANKOVICH, TOM J, SAN PEDRO, CA. More information available from US FCC via Universal Licensing System and Coast Guard Vessel Documentation Center.

Last reported at 2018-Jan-18 07:59 UTC. Time now 2018-Jan-18 08:10 UTC.
Position N 33°44' W 118°17'.

Length 36 m; draft 3 m.

Type: Tow > 200 m length. MMSI: 367006770.

Date/timePositionNaut miles runAvg speedWind from/ knotsBaromVisibWave heightAir tempDewpointWater temp
2018-Jan-18 07:59N 33°44' W 118°17'0 0.0
2018-Jan-18 06:39N 33°44' W 118°17'0 0.0
2018-Jan-18 06:28N 33°44' W 118°17'0 0.0
2018-Jan-18 05:57N 33°44' W 118°17'0 0.1
2018-Jan-18 05:29N 33°44' W 118°17'3 3.2
2018-Jan-18 04:37N 33°44' W 118°13'  
2018-Jan-12 07:27N 33°44' W 118°17'0 0.0
2018-Jan-12 07:00N 33°44' W 118°17'0 0.0
2018-Jan-12 06:25N 33°44' W 118°17'0 0.0
2018-Jan-12 06:00N 33°44' W 118°17'0 0.1
2018-Jan-12 05:22N 33°44' W 118°16'16 5.7
2018-Jan-12 02:34N 33°32' W 118°04'1 6.7
2018-Jan-12 02:25N 33°31' W 118°03'3 6.6
2018-Jan-12 01:59N 33°28' W 118°01'15 6.6
2018-Jan-11 23:39N 33°16' W 117°50'2 6.4
2018-Jan-11 23:22N 33°15' W 117°49'2 6.2
2018-Jan-11 23:00N 33°13' W 117°47'3 6.5
2018-Jan-11 22:30N 33°10' W 117°45'3 6.4
2018-Jan-11 22:01N 33°08' W 117°43'3 6.5
2018-Jan-11 21:30N 33°05' W 117°41'3 6.5
2018-Jan-11 21:01N 33°02' W 117°38'3 6.4
2018-Jan-11 20:30N 32°60' W 117°36'3 6.4
2018-Jan-11 20:01N 32°57' W 117°34'3 6.4
2018-Jan-11 19:31N 32°55' W 117°31'3 6.3
2018-Jan-11 19:00N 32°52' W 117°29'3 6.2
2018-Jan-11 18:30N 32°50' W 117°27'3 6.2
2018-Jan-11 18:01N 32°47' W 117°25'3 6.1
2018-Jan-11 17:30N 32°45' W 117°23'6 6.1
2018-Jan-11 16:34N 32°40' W 117°18'0 6.1
2018-Jan-11 16:29N 32°40' W 117°18'  
2018-Jan-08 23:51N 32°42' W 117°20'2 5.5
2018-Jan-08 23:30N 32°44' W 117°21'3 5.4
2018-Jan-08 23:01N 32°46' W 117°23'3 5.4
2018-Jan-08 22:30N 32°48' W 117°25'3 5.3
2018-Jan-08 22:00N 32°50' W 117°27'3 5.4
2018-Jan-08 21:30N 32°52' W 117°29'3 5.5
2018-Jan-08 21:00N 32°54' W 117°31'3 5.3
2018-Jan-08 20:30N 32°56' W 117°33'3 5.1
2018-Jan-08 20:00N 32°58' W 117°35'3 5.1
2018-Jan-08 19:30N 33°00' W 117°37'3 5.1
2018-Jan-08 19:00N 33°02' W 117°39'3 5.2
2018-Jan-08 18:30N 33°05' W 117°40'3 5.2
2018-Jan-08 18:00N 33°07' W 117°42'3 5.2
2018-Jan-08 17:30N 33°09' W 117°44'3 5.0
2018-Jan-08 17:00N 33°11' W 117°46'3 5.0
2018-Jan-08 16:30N 33°13' W 117°47'  

Dump ship's entire track history